sensor_id;sensor_type;location;lat;lon;timestamp;pressure;altitude;pressure_sealevel;temperature;humidity
40708;BME280;26392;42.696;23.350;2022-10-17T00:01:21;96621.47;;;7.57;93.17
40708;BME280;26392;42.696;23.350;2022-10-17T00:03:46;96633.75;;;7.53;92.87
40708;BME280;26392;42.696;23.350;2022-10-17T00:06:13;96625.81;;;7.51;93.64
40708;BME280;26392;42.696;23.350;2022-10-17T00:08:40;96623.31;;;7.50;93.56
40708;BME280;26392;42.696;23.350;2022-10-17T00:11:11;96622.66;;;7.48;93.71
40708;BME280;26392;42.696;23.350;2022-10-17T00:13:37;96626.19;;;7.42;94.01
40708;BME280;26392;42.696;23.350;2022-10-17T00:16:03;96630.19;;;7.46;94.42
40708;BME280;26392;42.696;23.350;2022-10-17T00:18:28;96633.09;;;7.44;94.19
40708;BME280;26392;42.696;23.350;2022-10-17T00:20:54;96626.41;;;7.40;94.71
40708;BME280;26392;42.696;23.350;2022-10-17T00:23:19;96633.72;;;7.39;95.19
40708;BME280;26392;42.696;23.350;2022-10-17T00:25:45;96634.72;;;7.38;95.20
40708;BME280;26392;42.696;23.350;2022-10-17T00:28:11;96635.38;;;7.34;95.33
40708;BME280;26392;42.696;23.350;2022-10-17T00:30:37;96627.41;;;7.32;95.11
40708;BME280;26392;42.696;23.350;2022-10-17T00:33:03;96625.13;;;7.29;95.37
40708;BME280;26392;42.696;23.350;2022-10-17T00:35:29;96629.47;;;7.30;95.73
40708;BME280;26392;42.696;23.350;2022-10-17T00:37:54;96630.31;;;7.31;95.92
40708;BME280;26392;42.696;23.350;2022-10-17T00:40:20;96634.06;;;7.30;95.90
40708;BME280;26392;42.696;23.350;2022-10-17T00:42:45;96636.78;;;7.30;95.95
40708;BME280;26392;42.696;23.350;2022-10-17T00:45:24;96632.59;;;7.21;96.36
40708;BME280;26392;42.696;23.350;2022-10-17T00:47:57;96635.94;;;7.23;95.93
40708;BME280;26392;42.696;23.350;2022-10-17T00:50:24;96639.41;;;7.10;96.12
40708;BME280;26392;42.696;23.350;2022-10-17T00:52:50;96636.31;;;7.13;96.53
40708;BME280;26392;42.696;23.350;2022-10-17T00:55:24;96637.75;;;7.09;96.40
40708;BME280;26392;42.696;23.350;2022-10-17T00:57:53;96635.44;;;7.06;96.71
40708;BME280;26392;42.696;23.350;2022-10-17T01:00:20;96636.69;;;7.03;96.22
40708;BME280;26392;42.696;23.350;2022-10-17T01:02:46;96629.78;;;7.01;96.41
40708;BME280;26392;42.696;23.350;2022-10-17T01:05:13;96636.88;;;7.02;96.51
40708;BME280;26392;42.696;23.350;2022-10-17T01:07:40;96642.09;;;7.03;96.08
40708;BME280;26392;42.696;23.350;2022-10-17T01:10:06;96644.16;;;7.01;96.45
40708;BME280;26392;42.696;23.350;2022-10-17T01:38:47;96635.34;;;6.58;97.16
40708;BME280;26392;42.696;23.350;2022-10-17T01:46:36;96643.69;;;6.56;96.98
40708;BME280;26392;42.696;23.350;2022-10-17T01:49:03;96651.97;;;6.55;96.85
40708;BME280;26392;42.696;23.350;2022-10-17T01:51:35;96653.19;;;6.45;97.01
40708;BME280;26392;42.696;23.350;2022-10-17T01:54:04;96644.41;;;6.43;97.60
40708;BME280;26392;42.696;23.350;2022-10-17T01:56:32;96653.56;;;6.42;97.43
40708;BME280;26392;42.696;23.350;2022-10-17T01:59:03;96648.34;;;6.41;97.55
40708;BME280;26392;42.696;23.350;2022-10-17T02:01:31;96654.63;;;6.41;97.72
40708;BME280;26392;42.696;23.350;2022-10-17T02:03:59;96652.53;;;6.43;97.88
40708;BME280;26392;42.696;23.350;2022-10-17T02:06:25;96655.22;;;6.43;98.35
40708;BME280;26392;42.696;23.350;2022-10-17T02:08:51;96658.00;;;6.50;98.18
40708;BME280;26392;42.696;23.350;2022-10-17T02:11:19;96660.88;;;6.42;98.52
40708;BME280;26392;42.696;23.350;2022-10-17T02:14:12;96664.97;;;6.38;98.37
40708;BME280;26392;42.696;23.350;2022-10-17T02:17:13;96667.09;;;6.42;98.56
40708;BME280;26392;42.696;23.350;2022-10-17T02:28:06;96661.00;;;6.34;99.32
40708;BME280;26392;42.696;23.350;2022-10-17T02:30:48;96663.88;;;6.32;99.37
40708;BME280;26392;42.696;23.350;2022-10-17T02:33:30;96681.81;;;6.33;99.37
40708;BME280;26392;42.696;23.350;2022-10-17T02:36:02;96680.66;;;6.21;99.90
40708;BME280;26392;42.696;23.350;2022-10-17T02:38:30;96683.22;;;6.08;99.99
40708;BME280;26392;42.696;23.350;2022-10-17T02:40:57;96683.72;;;6.11;99.93
40708;BME280;26392;42.696;23.350;2022-10-17T02:43:23;96679.25;;;6.03;100.00
40708;BME280;26392;42.696;23.350;2022-10-17T02:45:51;96683.38;;;5.99;99.90
40708;BME280;26392;42.696;23.350;2022-10-17T02:48:34;96685.94;;;6.08;99.90
40708;BME280;26392;42.696;23.350;2022-10-17T02:51:14;96689.25;;;6.03;99.55
40708;BME280;26392;42.696;23.350;2022-10-17T02:59:39;96701.22;;;5.94;98.46
40708;BME280;26392;42.696;23.350;2022-10-17T03:02:06;96705.94;;;5.92;98.23
40708;BME280;26392;42.696;23.350;2022-10-17T03:04:32;96698.84;;;5.91;98.02
40708;BME280;26392;42.696;23.350;2022-10-17T03:06:58;96707.41;;;5.73;98.03
40708;BME280;26392;42.696;23.350;2022-10-17T03:09:24;96709.66;;;5.69;98.25
40708;BME280;26392;42.696;23.350;2022-10-17T03:11:49;96708.06;;;5.75;98.12
40708;BME280;26392;42.696;23.350;2022-10-17T03:14:15;96708.22;;;5.73;97.82
40708;BME280;26392;42.696;23.350;2022-10-17T03:16:40;96708.88;;;5.75;97.71
40708;BME280;26392;42.696;23.350;2022-10-17T03:19:06;96708.81;;;5.69;97.73
40708;BME280;26392;42.696;23.350;2022-10-17T03:21:32;96710.44;;;5.63;97.61
40708;BME280;26392;42.696;23.350;2022-10-17T03:23:57;96712.47;;;5.61;97.69
40708;BME280;26392;42.696;23.350;2022-10-17T03:26:22;96710.53;;;5.55;97.71
40708;BME280;26392;42.696;23.350;2022-10-17T03:28:48;96711.38;;;5.55;97.40
40708;BME280;26392;42.696;23.350;2022-10-17T03:31:15;96711.47;;;5.47;97.69
40708;BME280;26392;42.696;23.350;2022-10-17T03:33:41;96708.78;;;5.47;98.11
40708;BME280;26392;42.696;23.350;2022-10-17T03:36:08;96706.34;;;5.52;97.97
40708;BME280;26392;42.696;23.350;2022-10-17T03:38:34;96707.34;;;5.51;97.63
40708;BME280;26392;42.696;23.350;2022-10-17T03:41:00;96712.97;;;5.50;97.38
40708;BME280;26392;42.696;23.350;2022-10-17T03:43:26;96709.22;;;5.51;97.32
40708;BME280;26392;42.696;23.350;2022-10-17T03:45:51;96713.88;;;5.57;97.15
40708;BME280;26392;42.696;23.350;2022-10-17T03:48:16;96715.63;;;5.65;96.77
40708;BME280;26392;42.696;23.350;2022-10-17T03:50:42;96723.47;;;5.59;96.71
40708;BME280;26392;42.696;23.350;2022-10-17T03:53:07;96733.00;;;5.55;96.82
40708;BME280;26392;42.696;23.350;2022-10-17T03:55:33;96739.16;;;5.49;97.21
40708;BME280;26392;42.696;23.350;2022-10-17T03:57:58;96732.72;;;5.50;96.98
40708;BME280;26392;42.696;23.350;2022-10-17T04:00:24;96734.38;;;5.51;96.97
40708;BME280;26392;42.696;23.350;2022-10-17T04:02:49;96731.44;;;5.46;96.57
40708;BME280;26392;42.696;23.350;2022-10-17T04:05:14;96732.81;;;5.42;96.89
40708;BME280;26392;42.696;23.350;2022-10-17T04:07:40;96733.56;;;5.36;96.76
40708;BME280;26392;42.696;23.350;2022-10-17T04:10:06;96735.72;;;5.41;96.78
40708;BME280;26392;42.696;23.350;2022-10-17T04:12:31;96734.78;;;5.33;96.70
40708;BME280;26392;42.696;23.350;2022-10-17T04:14:57;96731.63;;;5.30;96.95
40708;BME280;26392;42.696;23.350;2022-10-17T04:17:22;96738.41;;;5.26;97.02
40708;BME280;26392;42.696;23.350;2022-10-17T04:19:48;96744.03;;;5.24;97.37
40708;BME280;26392;42.696;23.350;2022-10-17T04:22:13;96733.50;;;5.29;97.05
40708;BME280;26392;42.696;23.350;2022-10-17T04:24:39;96738.03;;;5.29;97.04
40708;BME280;26392;42.696;23.350;2022-10-17T04:27:04;96738.69;;;5.31;96.70
40708;BME280;26392;42.696;23.350;2022-10-17T04:29:29;96747.56;;;5.25;97.04
40708;BME280;26392;42.696;23.350;2022-10-17T04:31:55;96740.56;;;5.30;96.83
40708;BME280;26392;42.696;23.350;2022-10-17T04:34:20;96746.53;;;5.26;97.05
40708;BME280;26392;42.696;23.350;2022-10-17T04:36:46;96746.00;;;5.15;97.34
40708;BME280;26392;42.696;23.350;2022-10-17T04:39:11;96746.16;;;5.14;97.60
40708;BME280;26392;42.696;23.350;2022-10-17T04:41:37;96751.47;;;5.07;97.42
40708;BME280;26392;42.696;23.350;2022-10-17T04:44:02;96758.09;;;5.05;97.68
40708;BME280;26392;42.696;23.350;2022-10-17T04:46:28;96751.28;;;5.09;97.74
40708;BME280;26392;42.696;23.350;2022-10-17T04:48:53;96758.91;;;5.05;97.50
40708;BME280;26392;42.696;23.350;2022-10-17T04:51:19;96750.16;;;5.03;97.83
40708;BME280;26392;42.696;23.350;2022-10-17T04:53:44;96753.81;;;5.10;97.33
40708;BME280;26392;42.696;23.350;2022-10-17T04:56:15;96758.72;;;5.07;97.38
40708;BME280;26392;42.696;23.350;2022-10-17T04:58:42;96765.69;;;5.01;97.64
40708;BME280;26392;42.696;23.350;2022-10-17T05:01:10;96770.19;;;4.94;97.17
40708;BME280;26392;42.696;23.350;2022-10-17T05:03:36;96773.25;;;4.91;97.54
40708;BME280;26392;42.696;23.350;2022-10-17T05:06:10;96770.72;;;4.89;97.22
40708;BME280;26392;42.696;23.350;2022-10-17T05:08:36;96772.97;;;5.01;97.23
40708;BME280;26392;42.696;23.350;2022-10-17T05:11:02;96777.25;;;4.95;97.21
40708;BME280;26392;42.696;23.350;2022-10-17T05:13:28;96770.47;;;4.99;97.61
40708;BME280;26392;42.696;23.350;2022-10-17T05:16:00;96775.88;;;4.99;97.41
40708;BME280;26392;42.696;23.350;2022-10-17T05:18:27;96782.88;;;5.08;97.13
40708;BME280;26392;42.696;23.350;2022-10-17T05:20:53;96784.72;;;5.08;97.23
40708;BME280;26392;42.696;23.350;2022-10-17T05:23:19;96790.97;;;5.08;96.88
40708;BME280;26392;42.696;23.350;2022-10-17T05:25:44;96795.25;;;5.18;96.99
40708;BME280;26392;42.696;23.350;2022-10-17T05:28:09;96792.19;;;5.21;96.90
40708;BME280;26392;42.696;23.350;2022-10-17T05:30:35;96797.13;;;5.17;96.58
40708;BME280;26392;42.696;23.350;2022-10-17T05:33:01;96793.03;;;5.36;96.47
40708;BME280;26392;42.696;23.350;2022-10-17T05:35:27;96793.22;;;5.49;95.86
40708;BME280;26392;42.696;23.350;2022-10-17T05:37:52;96797.31;;;5.60;95.43
40708;BME280;26392;42.696;23.350;2022-10-17T05:40:18;96801.72;;;5.61;95.45
40708;BME280;26392;42.696;23.350;2022-10-17T05:42:47;96798.53;;;5.72;95.25
40708;BME280;26392;42.696;23.350;2022-10-17T05:45:13;96800.53;;;5.85;94.68
40708;BME280;26392;42.696;23.350;2022-10-17T05:47:39;96799.91;;;5.83;94.40
40708;BME280;26392;42.696;23.350;2022-10-17T05:50:06;96815.09;;;5.99;93.81
40708;BME280;26392;42.696;23.350;2022-10-17T05:52:32;96805.66;;;6.10;93.54
40708;BME280;26392;42.696;23.350;2022-10-17T05:54:57;96816.41;;;6.03;93.33
40708;BME280;26392;42.696;23.350;2022-10-17T05:57:26;96813.50;;;5.90;94.24
40708;BME280;26392;42.696;23.350;2022-10-17T05:59:51;96820.06;;;5.95;94.58
40708;BME280;26392;42.696;23.350;2022-10-17T06:02:17;96828.53;;;5.92;94.74
40708;BME280;26392;42.696;23.350;2022-10-17T06:04:42;96823.88;;;6.01;94.80
40708;BME280;26392;42.696;23.350;2022-10-17T06:07:13;96828.91;;;6.04;94.48
40708;BME280;26392;42.696;23.350;2022-10-17T06:09:39;96833.03;;;6.00;94.33
40708;BME280;26392;42.696;23.350;2022-10-17T06:12:05;96830.00;;;6.10;94.69
40708;BME280;26392;42.696;23.350;2022-10-17T06:14:30;96820.84;;;6.25;94.19
40708;BME280;26392;42.696;23.350;2022-10-17T06:16:56;96826.59;;;6.37;93.41
40708;BME280;26392;42.696;23.350;2022-10-17T06:19:21;96832.31;;;6.49;93.23
40708;BME280;26392;42.696;23.350;2022-10-17T06:21:47;96838.44;;;6.58;92.66
40708;BME280;26392;42.696;23.350;2022-10-17T06:24:12;96835.13;;;6.56;92.44
40708;BME280;26392;42.696;23.350;2022-10-17T06:26:38;96840.16;;;6.59;92.29
40708;BME280;26392;42.696;23.350;2022-10-17T06:29:03;96844.84;;;6.71;92.10
40708;BME280;26392;42.696;23.350;2022-10-17T06:31:29;96855.56;;;6.80;91.42
40708;BME280;26392;42.696;23.350;2022-10-17T06:33:54;96853.94;;;6.85;91.06
40708;BME280;26392;42.696;23.350;2022-10-17T06:36:19;96853.53;;;6.88;90.49
40708;BME280;26392;42.696;23.350;2022-10-17T06:38:45;96857.81;;;6.98;90.28
40708;BME280;26392;42.696;23.350;2022-10-17T06:41:12;96860.56;;;7.04;89.94
40708;BME280;26392;42.696;23.350;2022-10-17T06:43:42;96852.34;;;7.19;89.61
40708;BME280;26392;42.696;23.350;2022-10-17T06:46:12;96854.63;;;7.15;88.99
40708;BME280;26392;42.696;23.350;2022-10-17T06:48:38;96852.22;;;7.27;88.26
40708;BME280;26392;42.696;23.350;2022-10-17T06:51:04;96853.38;;;7.39;87.90
40708;BME280;26392;42.696;23.350;2022-10-17T06:53:32;96851.19;;;7.56;87.36
40708;BME280;26392;42.696;23.350;2022-10-17T06:55:57;96851.72;;;7.73;86.48
40708;BME280;26392;42.696;23.350;2022-10-17T06:58:32;96848.44;;;7.91;85.70
40708;BME280;26392;42.696;23.350;2022-10-17T07:01:04;96861.88;;;8.06;85.57
40708;BME280;26392;42.696;23.350;2022-10-17T07:03:30;96860.91;;;8.20;85.13
40708;BME280;26392;42.696;23.350;2022-10-17T07:05:56;96853.22;;;8.30;85.27
40708;BME280;26392;42.696;23.350;2022-10-17T07:08:21;96853.94;;;8.46;84.00
40708;BME280;26392;42.696;23.350;2022-10-17T07:10:48;96847.88;;;8.44;83.17
40708;BME280;26392;42.696;23.350;2022-10-17T07:13:14;96854.78;;;8.60;82.95
40708;BME280;26392;42.696;23.350;2022-10-17T07:15:40;96842.72;;;8.76;82.55
40708;BME280;26392;42.696;23.350;2022-10-17T07:18:06;96852.75;;;8.82;82.03
40708;BME280;26392;42.696;23.350;2022-10-17T07:20:31;96847.97;;;8.97;81.38
40708;BME280;26392;42.696;23.350;2022-10-17T07:22:57;96856.75;;;9.12;81.64
40708;BME280;26392;42.696;23.350;2022-10-17T07:25:22;96855.72;;;9.20;81.20
40708;BME280;26392;42.696;23.350;2022-10-17T07:27:48;96855.13;;;9.25;80.04
40708;BME280;26392;42.696;23.350;2022-10-17T07:30:14;96862.66;;;9.36;79.29
40708;BME280;26392;42.696;23.350;2022-10-17T07:32:40;96859.50;;;9.46;79.75
40708;BME280;26392;42.696;23.350;2022-10-17T07:35:05;96855.50;;;9.48;79.50
40708;BME280;26392;42.696;23.350;2022-10-17T07:37:31;96855.47;;;9.68;78.03
40708;BME280;26392;42.696;23.350;2022-10-17T07:39:57;96857.34;;;9.81;77.45
40708;BME280;26392;42.696;23.350;2022-10-17T07:42:23;96861.75;;;9.82;77.12
40708;BME280;26392;42.696;23.350;2022-10-17T07:44:48;96866.09;;;9.96;76.42
40708;BME280;26392;42.696;23.350;2022-10-17T07:47:14;96860.66;;;10.03;76.08
40708;BME280;26392;42.696;23.350;2022-10-17T07:49:39;96862.06;;;10.19;75.75
40708;BME280;26392;42.696;23.350;2022-10-17T07:52:09;96861.84;;;10.27;74.88
40708;BME280;26392;42.696;23.350;2022-10-17T07:54:36;96855.97;;;10.30;74.64
40708;BME280;26392;42.696;23.350;2022-10-17T07:57:01;96853.22;;;10.37;74.13
40708;BME280;26392;42.696;23.350;2022-10-17T07:59:27;96854.44;;;10.47;73.90
40708;BME280;26392;42.696;23.350;2022-10-17T08:01:55;96857.13;;;10.54;73.86
40708;BME280;26392;42.696;23.350;2022-10-17T08:04:21;96856.00;;;10.68;72.72
40708;BME280;26392;42.696;23.350;2022-10-17T08:06:47;96850.44;;;10.88;73.16
40708;BME280;26392;42.696;23.350;2022-10-17T08:09:13;96846.59;;;10.96;71.81
40708;BME280;26392;42.696;23.350;2022-10-17T08:11:38;96841.91;;;11.10;71.12
40708;BME280;26392;42.696;23.350;2022-10-17T08:14:04;96843.63;;;11.29;70.74
40708;BME280;26392;42.696;23.350;2022-10-17T08:16:29;96841.78;;;11.48;71.24
40708;BME280;26392;42.696;23.350;2022-10-17T08:18:55;96832.84;;;11.59;70.23
40708;BME280;26392;42.696;23.350;2022-10-17T08:21:20;96830.47;;;11.70;69.40
40708;BME280;26392;42.696;23.350;2022-10-17T08:23:46;96837.06;;;11.80;67.97
40708;BME280;26392;42.696;23.350;2022-10-17T08:26:12;96831.66;;;11.99;66.35
40708;BME280;26392;42.696;23.350;2022-10-17T08:28:40;96826.03;;;12.12;65.54
40708;BME280;26392;42.696;23.350;2022-10-17T08:31:09;96822.53;;;12.23;64.41
40708;BME280;26392;42.696;23.350;2022-10-17T08:33:35;96828.69;;;12.37;64.88
40708;BME280;26392;42.696;23.350;2022-10-17T08:36:01;96830.66;;;12.30;65.40
40708;BME280;26392;42.696;23.350;2022-10-17T08:38:30;96828.28;;;12.52;64.13
40708;BME280;26392;42.696;23.350;2022-10-17T08:41:03;96824.16;;;12.61;62.64
40708;BME280;26392;42.696;23.350;2022-10-17T08:44:21;96827.59;;;12.87;62.16
40708;BME280;26392;42.696;23.350;2022-10-17T08:46:41;96830.50;;;13.04;60.60
40708;BME280;26392;42.696;23.350;2022-10-17T08:49:18;96829.22;;;13.18;58.57
40708;BME280;26392;42.696;23.350;2022-10-17T08:51:57;96833.16;;;13.22;58.69
40708;BME280;26392;42.696;23.350;2022-10-17T08:54:46;96841.78;;;13.37;58.07
40708;BME280;26392;42.696;23.350;2022-10-17T08:57:14;96830.63;;;13.51;57.90
40708;BME280;26392;42.696;23.350;2022-10-17T08:59:42;96836.09;;;13.62;56.31
40708;BME280;26392;42.696;23.350;2022-10-17T09:10:02;96818.91;;;14.14;56.47
40708;BME280;26392;42.696;23.350;2022-10-17T09:18:22;96832.41;;;14.56;50.48
40708;BME280;26392;42.696;23.350;2022-10-17T09:23:47;96831.69;;;14.61;48.04
40708;BME280;26392;42.696;23.350;2022-10-17T09:26:14;96829.28;;;14.64;48.13
40708;BME280;26392;42.696;23.350;2022-10-17T09:28:41;96821.34;;;14.51;49.50
40708;BME280;26392;42.696;23.350;2022-10-17T09:31:22;96825.06;;;14.57;47.71
40708;BME280;26392;42.696;23.350;2022-10-17T09:33:50;96820.94;;;14.71;47.12
40708;BME280;26392;42.696;23.350;2022-10-17T09:36:22;96810.84;;;14.88;46.84
40708;BME280;26392;42.696;23.350;2022-10-17T09:38:52;96812.25;;;14.91;46.68
40708;BME280;26392;42.696;23.350;2022-10-17T09:41:40;96810.19;;;15.15;47.28
40708;BME280;26392;42.696;23.350;2022-10-17T09:44:19;96806.81;;;15.25;45.67
40708;BME280;26392;42.696;23.350;2022-10-17T09:49:31;96805.50;;;15.44;44.49
40708;BME280;26392;42.696;23.350;2022-10-17T09:52:02;96808.38;;;15.54;42.56
40708;BME280;26392;42.696;23.350;2022-10-17T09:54:50;96800.00;;;15.61;43.89
40708;BME280;26392;42.696;23.350;2022-10-17T09:57:19;96804.75;;;15.82;44.31
40708;BME280;26392;42.696;23.350;2022-10-17T10:00:04;96806.28;;;15.95;42.12
40708;BME280;26392;42.696;23.350;2022-10-17T10:02:30;96790.59;;;16.13;41.74
40708;BME280;26392;42.696;23.350;2022-10-17T10:07:26;96788.06;;;16.28;40.46
40708;BME280;26392;42.696;23.350;2022-10-17T10:09:52;96784.66;;;16.21;40.44
40708;BME280;26392;42.696;23.350;2022-10-17T10:12:30;96787.22;;;16.27;39.15
40708;BME280;26392;42.696;23.350;2022-10-17T10:14:56;96786.31;;;16.44;36.67
40708;BME280;26392;42.696;23.350;2022-10-17T10:17:39;96787.41;;;16.43;35.93
40708;BME280;26392;42.696;23.350;2022-10-17T10:20:33;96778.19;;;16.54;36.27
40708;BME280;26392;42.696;23.350;2022-10-17T10:23:19;96776.84;;;16.78;35.79
40708;BME280;26392;42.696;23.350;2022-10-17T10:25:55;96781.34;;;16.90;35.25
40708;BME280;26392;42.696;23.350;2022-10-17T10:28:30;96771.44;;;16.89;35.21
40708;BME280;26392;42.696;23.350;2022-10-17T10:30:57;96774.19;;;16.89;34.29
40708;BME280;26392;42.696;23.350;2022-10-17T10:33:26;96767.66;;;16.95;33.70
40708;BME280;26392;42.696;23.350;2022-10-17T10:36:01;96766.31;;;17.03;34.29
40708;BME280;26392;42.696;23.350;2022-10-17T10:38:28;96763.69;;;17.13;33.94
40708;BME280;26392;42.696;23.350;2022-10-17T10:40:56;96757.59;;;17.11;34.70
40708;BME280;26392;42.696;23.350;2022-10-17T10:43:32;96753.25;;;17.15;35.02
40708;BME280;26392;42.696;23.350;2022-10-17T10:45:59;96763.50;;;17.25;35.21
40708;BME280;26392;42.696;23.350;2022-10-17T10:48:29;96755.03;;;17.31;35.18
40708;BME280;26392;42.696;23.350;2022-10-17T10:50:58;96752.13;;;17.48;35.09
40708;BME280;26392;42.696;23.350;2022-10-17T10:56:27;96738.41;;;17.53;34.14
40708;BME280;26392;42.696;23.350;2022-10-17T11:06:57;96735.63;;;17.53;34.08
40708;BME280;26392;42.696;23.350;2022-10-17T11:12:09;96730.19;;;17.63;33.96
40708;BME280;26392;42.696;23.350;2022-10-17T11:14:45;96726.03;;;17.61;32.26
40708;BME280;26392;42.696;23.350;2022-10-17T11:17:33;96735.47;;;17.70;33.00
40708;BME280;26392;42.696;23.350;2022-10-17T11:22:45;96716.75;;;17.77;33.10
40708;BME280;26392;42.696;23.350;2022-10-17T11:27:36;96713.31;;;17.97;32.73
40708;BME280;26392;42.696;23.350;2022-10-17T11:30:03;96705.84;;;17.98;33.20
40708;BME280;26392;42.696;23.350;2022-10-17T11:32:43;96713.38;;;18.07;32.27
40708;BME280;26392;42.696;23.350;2022-10-17T11:35:23;96715.59;;;18.10;32.69
40708;BME280;26392;42.696;23.350;2022-10-17T11:38:02;96708.97;;;18.11;32.70
40708;BME280;26392;42.696;23.350;2022-10-17T11:40:34;96702.56;;;18.01;33.09
40708;BME280;26392;42.696;23.350;2022-10-17T11:43:13;96704.88;;;18.24;32.68
40708;BME280;26392;42.696;23.350;2022-10-17T11:45:47;96701.84;;;18.26;32.80
40708;BME280;26392;42.696;23.350;2022-10-17T11:48:24;96702.69;;;18.26;33.35
40708;BME280;26392;42.696;23.350;2022-10-17T11:51:12;96693.34;;;18.38;33.74
40708;BME280;26392;42.696;23.350;2022-10-17T11:56:11;96687.59;;;18.54;32.80
40708;BME280;26392;42.696;23.350;2022-10-17T11:59:33;96686.44;;;18.45;32.22
40708;BME280;26392;42.696;23.350;2022-10-17T12:01:47;96688.97;;;18.52;32.33
40708;BME280;26392;42.696;23.350;2022-10-17T12:12:02;96674.84;;;18.38;31.42
40708;BME280;26392;42.696;23.350;2022-10-17T12:17:00;96687.31;;;18.61;30.70
40708;BME280;26392;42.696;23.350;2022-10-17T12:19:31;96681.25;;;18.64;30.63
40708;BME280;26392;42.696;23.350;2022-10-17T12:24:59;96678.22;;;18.66;30.77
40708;BME280;26392;42.696;23.350;2022-10-17T12:27:42;96678.78;;;18.73;31.04
40708;BME280;26392;42.696;23.350;2022-10-17T12:30:20;96665.31;;;18.76;30.70
40708;BME280;26392;42.696;23.350;2022-10-17T12:33:02;96663.91;;;18.84;29.91
40708;BME280;26392;42.696;23.350;2022-10-17T12:35:32;96671.66;;;18.92;29.69
40708;BME280;26392;42.696;23.350;2022-10-17T12:38:13;96664.75;;;18.95;28.99
40708;BME280;26392;42.696;23.350;2022-10-17T12:45:50;96655.91;;;18.83;29.88
40708;BME280;26392;42.696;23.350;2022-10-17T12:53:37;96661.72;;;18.81;30.59
40708;BME280;26392;42.696;23.350;2022-10-17T12:56:06;96655.63;;;18.89;30.75
40708;BME280;26392;42.696;23.350;2022-10-17T12:58:33;96655.91;;;18.83;31.24
40708;BME280;26392;42.696;23.350;2022-10-17T13:00:59;96656.19;;;18.76;31.18
40708;BME280;26392;42.696;23.350;2022-10-17T13:03:27;96647.66;;;18.88;32.01
40708;BME280;26392;42.696;23.350;2022-10-17T13:05:59;96663.38;;;18.77;32.54
40708;BME280;26392;42.696;23.350;2022-10-17T13:08:29;96653.16;;;18.77;33.25
40708;BME280;26392;42.696;23.350;2022-10-17T13:10:56;96657.53;;;18.63;33.03
40708;BME280;26392;42.696;23.350;2022-10-17T13:13:48;96661.66;;;18.66;33.60
40708;BME280;26392;42.696;23.350;2022-10-17T13:16:32;96660.28;;;18.63;32.73
40708;BME280;26392;42.696;23.350;2022-10-17T13:18:59;96652.84;;;18.69;33.13
40708;BME280;26392;42.696;23.350;2022-10-17T13:21:25;96651.44;;;18.56;33.22
40708;BME280;26392;42.696;23.350;2022-10-17T13:23:51;96652.81;;;18.43;33.38
40708;BME280;26392;42.696;23.350;2022-10-17T13:26:24;96654.72;;;18.48;34.08
40708;BME280;26392;42.696;23.350;2022-10-17T13:29:10;96655.03;;;18.62;33.47
40708;BME280;26392;42.696;23.350;2022-10-17T13:31:41;96649.50;;;18.51;33.97
40708;BME280;26392;42.696;23.350;2022-10-17T13:34:21;96650.88;;;18.49;33.88
40708;BME280;26392;42.696;23.350;2022-10-17T13:36:51;96656.09;;;18.45;34.24
40708;BME280;26392;42.696;23.350;2022-10-17T13:39:21;96658.84;;;18.45;34.52
40708;BME280;26392;42.696;23.350;2022-10-17T13:41:47;96649.75;;;18.34;34.20
40708;BME280;26392;42.696;23.350;2022-10-17T13:44:19;96660.22;;;18.43;34.52
40708;BME280;26392;42.696;23.350;2022-10-17T13:46:45;96655.25;;;18.40;34.19
40708;BME280;26392;42.696;23.350;2022-10-17T13:49:15;96655.56;;;18.43;34.66
40708;BME280;26392;42.696;23.350;2022-10-17T13:51:45;96660.50;;;18.36;35.17
40708;BME280;26392;42.696;23.350;2022-10-17T13:54:38;96651.97;;;18.38;35.93
40708;BME280;26392;42.696;23.350;2022-10-17T13:57:15;96649.72;;;18.24;36.08
40708;BME280;26392;42.696;23.350;2022-10-17T13:59:42;96652.72;;;18.23;36.04
40708;BME280;26392;42.696;23.350;2022-10-17T14:02:18;96654.97;;;18.31;36.19
40708;BME280;26392;42.696;23.350;2022-10-17T14:04:44;96652.50;;;18.34;36.72
40708;BME280;26392;42.696;23.350;2022-10-17T14:07:24;96660.16;;;18.17;37.11
40708;BME280;26392;42.696;23.350;2022-10-17T14:09:50;96659.34;;;18.17;37.44
40708;BME280;26392;42.696;23.350;2022-10-17T14:12:18;96661.25;;;18.11;37.67
40708;BME280;26392;42.696;23.350;2022-10-17T14:14:50;96669.75;;;17.99;37.51
40708;BME280;26392;42.696;23.350;2022-10-17T14:17:25;96669.72;;;17.94;37.84
40708;BME280;26392;42.696;23.350;2022-10-17T14:19:54;96665.84;;;17.85;38.28
40708;BME280;26392;42.696;23.350;2022-10-17T14:24:46;96670.28;;;17.91;38.30
40708;BME280;26392;42.696;23.350;2022-10-17T14:27:34;96665.22;;;17.78;38.96
40708;BME280;26392;42.696;23.350;2022-10-17T14:30:29;96666.03;;;17.73;39.13
40708;BME280;26392;42.696;23.350;2022-10-17T14:32:55;96667.31;;;17.60;39.61
40708;BME280;26392;42.696;23.350;2022-10-17T14:35:21;96669.50;;;17.58;39.80
40708;BME280;26392;42.696;23.350;2022-10-17T14:37:49;96665.94;;;17.58;39.88
40708;BME280;26392;42.696;23.350;2022-10-17T14:40:20;96666.47;;;17.55;40.41
40708;BME280;26392;42.696;23.350;2022-10-17T14:42:47;96657.38;;;17.54;40.55
40708;BME280;26392;42.696;23.350;2022-10-17T14:45:25;96677.13;;;17.41;41.28
40708;BME280;26392;42.696;23.350;2022-10-17T14:47:53;96669.72;;;17.47;41.08
40708;BME280;26392;42.696;23.350;2022-10-17T14:50:28;96679.84;;;17.36;41.23
40708;BME280;26392;42.696;23.350;2022-10-17T14:55:31;96681.09;;;17.18;41.60
40708;BME280;26392;42.696;23.350;2022-10-17T14:57:57;96682.75;;;17.19;41.94
40708;BME280;26392;42.696;23.350;2022-10-17T15:00:24;96687.91;;;17.10;41.80
40708;BME280;26392;42.696;23.350;2022-10-17T15:02:51;96690.28;;;16.96;42.09
40708;BME280;26392;42.696;23.350;2022-10-17T15:05:17;96689.34;;;16.86;42.40